Accueil
METAR-TAF:

METAR-TAF

Aéroports :

Aéroport international d'Irkoutsk

Irkoutsk, Russie

latitude: 52-16N, longitude: 104-19E, altitude: 513 m

Observation

Le bulletin a été fait il y a 51 minutes, à 07:00 UTC
Vent 6 kt de sud, variant entre est/sud-est et sud-ouest
Température 27°C
Humidité 42%
Pression 1007 hPa
Visibilité 10 km ou plus
pas de nuages en-dessous de 1500 mètres et pas de cumulonimbus.

METAR: UIII 140700Z 19003MPS 120V220 CAVOK 27/13 Q1007 R12/CLRD60 NOSIG RMK QFE713/0951

Heure: 15:51 (07:51 UTC)

Prévision

Le bulletin a été fait il y a 2 heures et 51 minutes, à 05:00 UTC
Prévision valable du 14 à 06 UTC au 15 à 06 UTC
Vent 6 kt de sud
Visibilité 10 km ou plus

TAF: UIII 140500Z 1406/1506 19003MPS 9999 NSC

Observations et prévisions météorologiques de plus de 4000 aéroports (messages METAR et TAF).

Les stations disponibles sont représentées par des disques jaunes et rouges sur la carte.

Passer la souris dessus pour voir le nom de la station.

Cliquer dessus pour voir les observations et prévisions météorologiques.

Pour changer de carte: cliquez sur les boutons verts avec une croix noire pour zoomer, sur le bouton vert avec un tiret pour effectuer un zoom arrière, ou sur les flèches vertes pour les cartes adjacentes.


METAR-TAF: